sensor_id;sensor_type;location;lat;lon;timestamp;temperature;humidity
33717;DHT22;20046;50.746;7.072;2023-02-17T00:01:59;11.10;99.90
33717;DHT22;20046;50.746;7.072;2023-02-17T00:04:27;11.10;99.90
33717;DHT22;20046;50.746;7.072;2023-02-17T00:06:53;11.10;99.90
33717;DHT22;20046;50.746;7.072;2023-02-17T00:09:19;11.10;99.90
33717;DHT22;20046;50.746;7.072;2023-02-17T00:11:44;11.00;99.90
33717;DHT22;20046;50.746;7.072;2023-02-17T00:14:11;11.10;99.90
33717;DHT22;20046;50.746;7.072;2023-02-17T00:16:37;11.00;99.90
33717;DHT22;20046;50.746;7.072;2023-02-17T00:19:03;11.00;99.90
33717;DHT22;20046;50.746;7.072;2023-02-17T00:21:52;11.00;99.90
33717;DHT22;20046;50.746;7.072;2023-02-17T00:24:18;11.00;99.90
33717;DHT22;20046;50.746;7.072;2023-02-17T00:26:43;11.00;99.90
33717;DHT22;20046;50.746;7.072;2023-02-17T00:29:09;11.00;99.90
33717;DHT22;20046;50.746;7.072;2023-02-17T00:31:34;11.00;99.90
33717;DHT22;20046;50.746;7.072;2023-02-17T00:34:00;11.00;99.90
33717;DHT22;20046;50.746;7.072;2023-02-17T00:36:26;11.00;99.90
33717;DHT22;20046;50.746;7.072;2023-02-17T00:38:54;11.00;99.90
33717;DHT22;20046;50.746;7.072;2023-02-17T00:41:20;11.10;99.90
33717;DHT22;20046;50.746;7.072;2023-02-17T00:43:47;11.10;99.90
33717;DHT22;20046;50.746;7.072;2023-02-17T00:46:13;11.10;99.90
33717;DHT22;20046;50.746;7.072;2023-02-17T00:48:39;11.10;99.90
33717;DHT22;20046;50.746;7.072;2023-02-17T00:51:05;11.10;99.90
33717;DHT22;20046;50.746;7.072;2023-02-17T00:53:31;11.10;99.90
33717;DHT22;20046;50.746;7.072;2023-02-17T00:55:57;11.10;99.90
33717;DHT22;20046;50.746;7.072;2023-02-17T00:58:24;11.10;99.90
33717;DHT22;20046;50.746;7.072;2023-02-17T01:00:49;11.10;99.90
33717;DHT22;20046;50.746;7.072;2023-02-17T01:03:16;11.10;99.90
33717;DHT22;20046;50.746;7.072;2023-02-17T01:05:44;11.10;99.90
33717;DHT22;20046;50.746;7.072;2023-02-17T01:08:10;11.20;99.90
33717;DHT22;20046;50.746;7.072;2023-02-17T01:10:40;11.20;99.90
33717;DHT22;20046;50.746;7.072;2023-02-17T01:13:06;11.20;99.90
33717;DHT22;20046;50.746;7.072;2023-02-17T01:15:40;11.10;99.90
33717;DHT22;20046;50.746;7.072;2023-02-17T01:18:06;11.20;99.90
33717;DHT22;20046;50.746;7.072;2023-02-17T01:20:36;11.20;99.90
33717;DHT22;20046;50.746;7.072;2023-02-17T01:23:03;11.20;99.90
33717;DHT22;20046;50.746;7.072;2023-02-17T01:25:29;11.20;99.90
33717;DHT22;20046;50.746;7.072;2023-02-17T01:27:54;11.20;99.90
33717;DHT22;20046;50.746;7.072;2023-02-17T01:30:20;11.20;99.90
33717;DHT22;20046;50.746;7.072;2023-02-17T01:32:46;11.20;99.90
33717;DHT22;20046;50.746;7.072;2023-02-17T01:35:11;11.20;99.90
33717;DHT22;20046;50.746;7.072;2023-02-17T01:37:37;11.20;99.90
33717;DHT22;20046;50.746;7.072;2023-02-17T01:40:03;11.30;99.90
33717;DHT22;20046;50.746;7.072;2023-02-17T01:42:29;11.20;99.90
33717;DHT22;20046;50.746;7.072;2023-02-17T01:50:25;11.20;99.90
33717;DHT22;20046;50.746;7.072;2023-02-17T01:52:53;11.20;99.90
33717;DHT22;20046;50.746;7.072;2023-02-17T01:55:21;11.30;99.90
33717;DHT22;20046;50.746;7.072;2023-02-17T01:57:48;11.30;99.90
33717;DHT22;20046;50.746;7.072;2023-02-17T02:00:17;11.20;99.90
33717;DHT22;20046;50.746;7.072;2023-02-17T02:02:46;11.30;99.90
33717;DHT22;20046;50.746;7.072;2023-02-17T02:05:14;11.30;99.90
33717;DHT22;20046;50.746;7.072;2023-02-17T02:07:41;11.30;99.90
33717;DHT22;20046;50.746;7.072;2023-02-17T02:10:08;11.30;99.90
33717;DHT22;20046;50.746;7.072;2023-02-17T02:12:37;11.30;99.90
33717;DHT22;20046;50.746;7.072;2023-02-17T02:15:08;11.30;99.90
33717;DHT22;20046;50.746;7.072;2023-02-17T02:18:01;11.30;99.90
33717;DHT22;20046;50.746;7.072;2023-02-17T02:34:45;11.30;99.90
33717;DHT22;20046;50.746;7.072;2023-02-17T02:37:16;11.20;99.90
33717;DHT22;20046;50.746;7.072;2023-02-17T02:39:46;11.20;99.90
33717;DHT22;20046;50.746;7.072;2023-02-17T02:42:19;11.20;99.90
33717;DHT22;20046;50.746;7.072;2023-02-17T02:44:46;11.20;99.90
33717;DHT22;20046;50.746;7.072;2023-02-17T02:47:42;11.20;99.90
33717;DHT22;20046;50.746;7.072;2023-02-17T02:50:11;11.20;99.90
33717;DHT22;20046;50.746;7.072;2023-02-17T02:52:51;11.20;99.90
33717;DHT22;20046;50.746;7.072;2023-02-17T03:03:30;11.20;99.90
33717;DHT22;20046;50.746;7.072;2023-02-17T03:08:52;11.20;99.90
33717;DHT22;20046;50.746;7.072;2023-02-17T03:11:23;11.10;99.90
33717;DHT22;20046;50.746;7.072;2023-02-17T03:14:12;11.10;99.90
33717;DHT22;20046;50.746;7.072;2023-02-17T03:16:40;11.10;99.90
33717;DHT22;20046;50.746;7.072;2023-02-17T03:19:07;11.10;99.90
33717;DHT22;20046;50.746;7.072;2023-02-17T03:21:55;11.20;99.90
33717;DHT22;20046;50.746;7.072;2023-02-17T03:24:21;11.20;99.90
33717;DHT22;20046;50.746;7.072;2023-02-17T03:26:47;11.20;99.90
33717;DHT22;20046;50.746;7.072;2023-02-17T03:29:13;11.20;99.90
33717;DHT22;20046;50.746;7.072;2023-02-17T03:31:39;11.10;99.90
33717;DHT22;20046;50.746;7.072;2023-02-17T03:34:05;11.10;99.90
33717;DHT22;20046;50.746;7.072;2023-02-17T03:36:31;11.20;99.90
33717;DHT22;20046;50.746;7.072;2023-02-17T03:38:57;11.20;99.90
33717;DHT22;20046;50.746;7.072;2023-02-17T03:41:22;11.20;99.90
33717;DHT22;20046;50.746;7.072;2023-02-17T03:43:48;11.20;99.90
33717;DHT22;20046;50.746;7.072;2023-02-17T03:46:15;11.20;99.90
33717;DHT22;20046;50.746;7.072;2023-02-17T03:48:41;11.20;99.90
33717;DHT22;20046;50.746;7.072;2023-02-17T03:51:19;11.20;99.90
33717;DHT22;20046;50.746;7.072;2023-02-17T03:53:46;11.20;99.90
33717;DHT22;20046;50.746;7.072;2023-02-17T03:56:13;11.20;99.90
33717;DHT22;20046;50.746;7.072;2023-02-17T03:58:39;11.20;99.90
33717;DHT22;20046;50.746;7.072;2023-02-17T04:01:05;11.30;99.90
33717;DHT22;20046;50.746;7.072;2023-02-17T04:03:32;11.20;99.90
33717;DHT22;20046;50.746;7.072;2023-02-17T04:05:58;11.30;99.90
33717;DHT22;20046;50.746;7.072;2023-02-17T04:08:23;11.30;99.90
33717;DHT22;20046;50.746;7.072;2023-02-17T04:10:53;11.30;99.90
33717;DHT22;20046;50.746;7.072;2023-02-17T04:13:20;11.30;99.90
33717;DHT22;20046;50.746;7.072;2023-02-17T04:15:46;11.30;99.90
33717;DHT22;20046;50.746;7.072;2023-02-17T04:18:12;11.20;99.90
33717;DHT22;20046;50.746;7.072;2023-02-17T04:20:37;11.20;99.90
33717;DHT22;20046;50.746;7.072;2023-02-17T04:23:03;11.20;99.90
33717;DHT22;20046;50.746;7.072;2023-02-17T04:25:28;11.20;99.90
33717;DHT22;20046;50.746;7.072;2023-02-17T04:27:54;11.20;99.90
33717;DHT22;20046;50.746;7.072;2023-02-17T04:30:20;11.20;99.90
33717;DHT22;20046;50.746;7.072;2023-02-17T04:32:45;11.30;99.90
33717;DHT22;20046;50.746;7.072;2023-02-17T04:35:11;11.20;99.90
33717;DHT22;20046;50.746;7.072;2023-02-17T04:37:36;11.20;99.90
33717;DHT22;20046;50.746;7.072;2023-02-17T04:40:02;11.20;99.90
33717;DHT22;20046;50.746;7.072;2023-02-17T04:42:28;11.20;99.90
33717;DHT22;20046;50.746;7.072;2023-02-17T04:44:54;11.20;99.90
33717;DHT22;20046;50.746;7.072;2023-02-17T04:47:19;11.20;99.90
33717;DHT22;20046;50.746;7.072;2023-02-17T04:49:45;11.20;99.90
33717;DHT22;20046;50.746;7.072;2023-02-17T04:52:10;11.20;99.90
33717;DHT22;20046;50.746;7.072;2023-02-17T04:54:36;11.10;99.90
33717;DHT22;20046;50.746;7.072;2023-02-17T04:57:02;11.10;99.90
33717;DHT22;20046;50.746;7.072;2023-02-17T04:59:27;11.10;99.90
33717;DHT22;20046;50.746;7.072;2023-02-17T05:01:53;11.10;99.90
33717;DHT22;20046;50.746;7.072;2023-02-17T05:04:18;11.10;99.90
33717;DHT22;20046;50.746;7.072;2023-02-17T05:06:44;11.10;99.90
33717;DHT22;20046;50.746;7.072;2023-02-17T05:09:10;11.10;99.90
33717;DHT22;20046;50.746;7.072;2023-02-17T05:11:36;11.10;99.90
33717;DHT22;20046;50.746;7.072;2023-02-17T05:14:01;11.20;99.90
33717;DHT22;20046;50.746;7.072;2023-02-17T05:16:27;11.10;99.90
33717;DHT22;20046;50.746;7.072;2023-02-17T05:18:52;11.20;99.90
33717;DHT22;20046;50.746;7.072;2023-02-17T05:21:18;11.20;99.90
33717;DHT22;20046;50.746;7.072;2023-02-17T05:23:43;11.10;99.90
33717;DHT22;20046;50.746;7.072;2023-02-17T05:26:09;11.10;99.90
33717;DHT22;20046;50.746;7.072;2023-02-17T05:28:35;11.20;99.90
33717;DHT22;20046;50.746;7.072;2023-02-17T05:31:02;11.20;99.90
33717;DHT22;20046;50.746;7.072;2023-02-17T05:33:28;11.20;99.90
33717;DHT22;20046;50.746;7.072;2023-02-17T05:35:54;11.10;99.90
33717;DHT22;20046;50.746;7.072;2023-02-17T05:38:19;11.10;99.90
33717;DHT22;20046;50.746;7.072;2023-02-17T05:40:45;11.20;99.90
33717;DHT22;20046;50.746;7.072;2023-02-17T05:43:11;11.20;99.90
33717;DHT22;20046;50.746;7.072;2023-02-17T05:45:36;11.30;99.90
33717;DHT22;20046;50.746;7.072;2023-02-17T05:48:02;11.30;99.90
33717;DHT22;20046;50.746;7.072;2023-02-17T05:50:27;11.30;99.90
33717;DHT22;20046;50.746;7.072;2023-02-17T05:52:53;11.30;99.90
33717;DHT22;20046;50.746;7.072;2023-02-17T05:55:18;11.30;99.90
33717;DHT22;20046;50.746;7.072;2023-02-17T05:57:44;11.30;99.90
33717;DHT22;20046;50.746;7.072;2023-02-17T06:00:10;11.30;99.90
33717;DHT22;20046;50.746;7.072;2023-02-17T06:02:36;11.30;99.90
33717;DHT22;20046;50.746;7.072;2023-02-17T06:05:01;11.30;99.90
33717;DHT22;20046;50.746;7.072;2023-02-17T06:07:27;11.30;99.90
33717;DHT22;20046;50.746;7.072;2023-02-17T06:09:52;11.30;99.90
33717;DHT22;20046;50.746;7.072;2023-02-17T06:12:18;11.30;99.90
33717;DHT22;20046;50.746;7.072;2023-02-17T06:14:43;11.30;99.90
33717;DHT22;20046;50.746;7.072;2023-02-17T06:17:09;11.30;99.90
33717;DHT22;20046;50.746;7.072;2023-02-17T06:19:35;11.30;99.90
33717;DHT22;20046;50.746;7.072;2023-02-17T06:22:00;11.30;99.90
33717;DHT22;20046;50.746;7.072;2023-02-17T06:24:26;11.30;99.90
33717;DHT22;20046;50.746;7.072;2023-02-17T06:26:51;11.30;99.90
33717;DHT22;20046;50.746;7.072;2023-02-17T06:29:17;11.40;99.90
33717;DHT22;20046;50.746;7.072;2023-02-17T06:31:42;11.40;99.90
33717;DHT22;20046;50.746;7.072;2023-02-17T06:34:08;11.40;99.90
33717;DHT22;20046;50.746;7.072;2023-02-17T06:36:34;11.40;99.90
33717;DHT22;20046;50.746;7.072;2023-02-17T06:38:59;11.50;99.90
33717;DHT22;20046;50.746;7.072;2023-02-17T06:41:25;11.50;99.90
33717;DHT22;20046;50.746;7.072;2023-02-17T06:43:50;11.50;99.90
33717;DHT22;20046;50.746;7.072;2023-02-17T06:46:16;11.50;99.90
33717;DHT22;20046;50.746;7.072;2023-02-17T06:48:41;11.50;99.90
33717;DHT22;20046;50.746;7.072;2023-02-17T06:51:07;11.50;99.90
33717;DHT22;20046;50.746;7.072;2023-02-17T06:53:33;11.50;99.90
33717;DHT22;20046;50.746;7.072;2023-02-17T06:55:58;11.50;99.90
33717;DHT22;20046;50.746;7.072;2023-02-17T06:58:24;11.60;99.90
33717;DHT22;20046;50.746;7.072;2023-02-17T07:00:50;11.60;99.90
33717;DHT22;20046;50.746;7.072;2023-02-17T07:03:16;11.60;99.90
33717;DHT22;20046;50.746;7.072;2023-02-17T07:05:41;11.60;99.90
33717;DHT22;20046;50.746;7.072;2023-02-17T07:08:07;11.60;99.90
33717;DHT22;20046;50.746;7.072;2023-02-17T07:10:32;11.70;99.90
33717;DHT22;20046;50.746;7.072;2023-02-17T07:12:58;11.70;99.90
33717;DHT22;20046;50.746;7.072;2023-02-17T07:15:24;11.70;99.90
33717;DHT22;20046;50.746;7.072;2023-02-17T07:17:49;11.70;99.90
33717;DHT22;20046;50.746;7.072;2023-02-17T07:20:15;11.70;99.90
33717;DHT22;20046;50.746;7.072;2023-02-17T07:22:41;11.70;99.90
33717;DHT22;20046;50.746;7.072;2023-02-17T07:25:06;11.80;99.90
33717;DHT22;20046;50.746;7.072;2023-02-17T07:27:35;11.80;99.90
33717;DHT22;20046;50.746;7.072;2023-02-17T07:30:00;11.80;99.90
33717;DHT22;20046;50.746;7.072;2023-02-17T07:32:26;11.80;99.90
33717;DHT22;20046;50.746;7.072;2023-02-17T07:34:51;11.80;99.90
33717;DHT22;20046;50.746;7.072;2023-02-17T07:37:17;11.80;99.90
33717;DHT22;20046;50.746;7.072;2023-02-17T07:39:46;11.90;99.90
33717;DHT22;20046;50.746;7.072;2023-02-17T07:42:13;11.90;99.90
33717;DHT22;20046;50.746;7.072;2023-02-17T07:44:38;12.00;99.90
33717;DHT22;20046;50.746;7.072;2023-02-17T07:47:04;12.00;99.90
33717;DHT22;20046;50.746;7.072;2023-02-17T07:49:30;12.00;99.90
33717;DHT22;20046;50.746;7.072;2023-02-17T07:51:55;12.10;99.90
33717;DHT22;20046;50.746;7.072;2023-02-17T07:54:21;12.10;99.90
33717;DHT22;20046;50.746;7.072;2023-02-17T07:56:47;12.20;99.90
33717;DHT22;20046;50.746;7.072;2023-02-17T07:59:13;12.20;99.90
33717;DHT22;20046;50.746;7.072;2023-02-17T08:01:39;12.20;99.90
33717;DHT22;20046;50.746;7.072;2023-02-17T08:04:04;12.30;99.90
33717;DHT22;20046;50.746;7.072;2023-02-17T08:06:30;12.30;99.90
33717;DHT22;20046;50.746;7.072;2023-02-17T08:08:56;12.40;99.90
33717;DHT22;20046;50.746;7.072;2023-02-17T08:11:41;12.40;99.90
33717;DHT22;20046;50.746;7.072;2023-02-17T08:14:27;12.50;99.90
33717;DHT22;20046;50.746;7.072;2023-02-17T08:16:54;12.60;99.90
33717;DHT22;20046;50.746;7.072;2023-02-17T08:19:20;12.60;99.90
33717;DHT22;20046;50.746;7.072;2023-02-17T08:21:47;12.70;99.90
33717;DHT22;20046;50.746;7.072;2023-02-17T08:24:12;12.80;99.90
33717;DHT22;20046;50.746;7.072;2023-02-17T08:26:38;12.80;99.90
33717;DHT22;20046;50.746;7.072;2023-02-17T08:29:04;12.90;99.90
33717;DHT22;20046;50.746;7.072;2023-02-17T08:31:32;12.90;99.90
33717;DHT22;20046;50.746;7.072;2023-02-17T08:34:04;12.90;99.90
33717;DHT22;20046;50.746;7.072;2023-02-17T08:36:30;13.00;99.90
33717;DHT22;20046;50.746;7.072;2023-02-17T08:38:56;13.00;99.90
33717;DHT22;20046;50.746;7.072;2023-02-17T08:43:51;13.20;99.90
33717;DHT22;20046;50.746;7.072;2023-02-17T08:46:17;13.20;99.90
33717;DHT22;20046;50.746;7.072;2023-02-17T08:48:44;13.30;99.90
33717;DHT22;20046;50.746;7.072;2023-02-17T08:51:14;13.40;99.90
33717;DHT22;20046;50.746;7.072;2023-02-17T08:53:41;13.50;99.90
33717;DHT22;20046;50.746;7.072;2023-02-17T08:56:08;13.60;99.90
33717;DHT22;20046;50.746;7.072;2023-02-17T08:58:34;13.70;99.90
33717;DHT22;20046;50.746;7.072;2023-02-17T09:01:00;13.80;99.90
33717;DHT22;20046;50.746;7.072;2023-02-17T09:03:26;13.90;99.90
33717;DHT22;20046;50.746;7.072;2023-02-17T09:05:56;13.90;99.90
33717;DHT22;20046;50.746;7.072;2023-02-17T09:08:22;14.00;99.90
33717;DHT22;20046;50.746;7.072;2023-02-17T09:10:48;14.00;99.90
33717;DHT22;20046;50.746;7.072;2023-02-17T09:13:14;14.00;99.90
33717;DHT22;20046;50.746;7.072;2023-02-17T09:15:39;14.10;99.90
33717;DHT22;20046;50.746;7.072;2023-02-17T09:18:05;14.20;99.90
33717;DHT22;20046;50.746;7.072;2023-02-17T09:20:30;14.30;99.90
33717;DHT22;20046;50.746;7.072;2023-02-17T09:22:56;14.40;99.90
33717;DHT22;20046;50.746;7.072;2023-02-17T09:25:22;14.50;99.90
33717;DHT22;20046;50.746;7.072;2023-02-17T09:27:47;14.50;99.90
33717;DHT22;20046;50.746;7.072;2023-02-17T09:30:13;14.60;99.90
33717;DHT22;20046;50.746;7.072;2023-02-17T09:32:42;14.70;99.90
33717;DHT22;20046;50.746;7.072;2023-02-17T09:35:13;14.70;99.90
33717;DHT22;20046;50.746;7.072;2023-02-17T09:37:39;14.90;99.90
33717;DHT22;20046;50.746;7.072;2023-02-17T09:40:06;15.00;99.90
33717;DHT22;20046;50.746;7.072;2023-02-17T09:42:35;15.20;99.90
33717;DHT22;20046;50.746;7.072;2023-02-17T09:45:06;15.30;99.90
33717;DHT22;20046;50.746;7.072;2023-02-17T09:47:38;15.40;99.90
33717;DHT22;20046;50.746;7.072;2023-02-17T09:50:49;15.60;99.90
33717;DHT22;20046;50.746;7.072;2023-02-17T09:52:56;15.90;99.90
33717;DHT22;20046;50.746;7.072;2023-02-17T09:55:30;16.30;99.90
33717;DHT22;20046;50.746;7.072;2023-02-17T10:00:57;17.20;99.90
33717;DHT22;20046;50.746;7.072;2023-02-17T10:09:30;17.70;99.90
33717;DHT22;20046;50.746;7.072;2023-02-17T10:12:09;17.60;99.90
33717;DHT22;20046;50.746;7.072;2023-02-17T10:14:45;17.60;99.90
33717;DHT22;20046;50.746;7.072;2023-02-17T10:17:43;17.70;99.90
33717;DHT22;20046;50.746;7.072;2023-02-17T10:20:13;18.30;99.90
33717;DHT22;20046;50.746;7.072;2023-02-17T10:22:42;18.70;99.90
33717;DHT22;20046;50.746;7.072;2023-02-17T10:25:23;19.00;99.90
33717;DHT22;20046;50.746;7.072;2023-02-17T10:28:07;19.10;99.90
33717;DHT22;20046;50.746;7.072;2023-02-17T10:31:01;19.20;99.90
33717;DHT22;20046;50.746;7.072;2023-02-17T10:33:47;19.50;99.90
33717;DHT22;20046;50.746;7.072;2023-02-17T10:44:44;19.90;99.90
33717;DHT22;20046;50.746;7.072;2023-02-17T10:47:10;20.00;99.90
33717;DHT22;20046;50.746;7.072;2023-02-17T10:49:39;20.00;99.90
33717;DHT22;20046;50.746;7.072;2023-02-17T10:52:58;20.10;99.90
33717;DHT22;20046;50.746;7.072;2023-02-17T10:55:10;20.10;99.90
33717;DHT22;20046;50.746;7.072;2023-02-17T10:57:38;20.30;99.90
33717;DHT22;20046;50.746;7.072;2023-02-17T11:00:13;20.60;99.90
33717;DHT22;20046;50.746;7.072;2023-02-17T11:02:47;21.10;99.90
33717;DHT22;20046;50.746;7.072;2023-02-17T11:05:32;21.80;99.90
33717;DHT22;20046;50.746;7.072;2023-02-17T11:08:04;22.30;99.90
33717;DHT22;20046;50.746;7.072;2023-02-17T11:10:39;21.80;99.90
33717;DHT22;20046;50.746;7.072;2023-02-17T11:13:38;21.20;99.90
33717;DHT22;20046;50.746;7.072;2023-02-17T11:16:05;20.50;99.90
33717;DHT22;20046;50.746;7.072;2023-02-17T11:18:33;20.00;99.90
33717;DHT22;20046;50.746;7.072;2023-02-17T11:21:02;19.70;99.90
33717;DHT22;20046;50.746;7.072;2023-02-17T11:23:28;19.50;99.90
33717;DHT22;20046;50.746;7.072;2023-02-17T11:25:59;19.30;99.90
33717;DHT22;20046;50.746;7.072;2023-02-17T11:28:25;19.20;99.90
33717;DHT22;20046;50.746;7.072;2023-02-17T11:30:55;18.90;99.90
33717;DHT22;20046;50.746;7.072;2023-02-17T11:33:38;18.80;99.90
33717;DHT22;20046;50.746;7.072;2023-02-17T11:36:05;18.80;99.90
33717;DHT22;20046;50.746;7.072;2023-02-17T11:41:05;19.20;99.90
33717;DHT22;20046;50.746;7.072;2023-02-17T11:43:33;19.30;99.90
33717;DHT22;20046;50.746;7.072;2023-02-17T11:46:26;19.30;99.90
33717;DHT22;20046;50.746;7.072;2023-02-17T11:49:11;19.10;99.90
33717;DHT22;20046;50.746;7.072;2023-02-17T11:57:51;19.10;99.90
33717;DHT22;20046;50.746;7.072;2023-02-17T12:11:29;19.40;99.90
33717;DHT22;20046;50.746;7.072;2023-02-17T12:25:23;18.80;99.90
33717;DHT22;20046;50.746;7.072;2023-02-17T12:28:07;18.70;99.90
33717;DHT22;20046;50.746;7.072;2023-02-17T12:36:18;19.10;99.90
33717;DHT22;20046;50.746;7.072;2023-02-17T12:38:53;19.50;99.90
33717;DHT22;20046;50.746;7.072;2023-02-17T12:41:40;20.20;99.90
33717;DHT22;20046;50.746;7.072;2023-02-17T12:44:31;21.10;99.90
33717;DHT22;20046;50.746;7.072;2023-02-17T12:47:38;21.90;99.90
33717;DHT22;20046;50.746;7.072;2023-02-17T12:50:03;22.10;99.90
33717;DHT22;20046;50.746;7.072;2023-02-17T12:52:35;21.80;99.90
33717;DHT22;20046;50.746;7.072;2023-02-17T12:55:19;22.10;99.90
33717;DHT22;20046;50.746;7.072;2023-02-17T12:57:58;22.90;99.90
33717;DHT22;20046;50.746;7.072;2023-02-17T13:01:11;22.90;99.90
33717;DHT22;20046;50.746;7.072;2023-02-17T13:03:17;22.70;99.90
33717;DHT22;20046;50.746;7.072;2023-02-17T13:06:22;22.60;99.90
33717;DHT22;20046;50.746;7.072;2023-02-17T13:08:53;23.80;99.30
33717;DHT22;20046;50.746;7.072;2023-02-17T13:11:29;25.40;96.60
33717;DHT22;20046;50.746;7.072;2023-02-17T13:13:54;26.60;94.30
33717;DHT22;20046;50.746;7.072;2023-02-17T13:16:20;27.10;92.00
33717;DHT22;20046;50.746;7.072;2023-02-17T13:18:48;26.90;91.10
33717;DHT22;20046;50.746;7.072;2023-02-17T13:24:04;28.40;87.00
33717;DHT22;20046;50.746;7.072;2023-02-17T13:26:36;28.80;84.20
33717;DHT22;20046;50.746;7.072;2023-02-17T13:31:55;26.40;83.90
33717;DHT22;20046;50.746;7.072;2023-02-17T13:34:24;25.60;85.50
33717;DHT22;20046;50.746;7.072;2023-02-17T13:36:51;25.40;86.60
33717;DHT22;20046;50.746;7.072;2023-02-17T13:41:54;25.10;86.60
33717;DHT22;20046;50.746;7.072;2023-02-17T13:44:42;24.80;86.80
33717;DHT22;20046;50.746;7.072;2023-02-17T13:47:26;25.00;86.80
33717;DHT22;20046;50.746;7.072;2023-02-17T13:49:55;24.80;86.70
33717;DHT22;20046;50.746;7.072;2023-02-17T13:52:26;24.20;88.20
33717;DHT22;20046;50.746;7.072;2023-02-17T13:55:00;23.60;90.00
33717;DHT22;20046;50.746;7.072;2023-02-17T13:57:31;23.30;90.20
33717;DHT22;20046;50.746;7.072;2023-02-17T14:02:51;24.30;88.00
33717;DHT22;20046;50.746;7.072;2023-02-17T14:05:27;24.80;87.20
33717;DHT22;20046;50.746;7.072;2023-02-17T14:08:06;24.90;86.20
33717;DHT22;20046;50.746;7.072;2023-02-17T14:10:32;25.10;86.70
33717;DHT22;20046;50.746;7.072;2023-02-17T14:12:58;25.10;86.10
33717;DHT22;20046;50.746;7.072;2023-02-17T14:15:26;25.10;85.70
33717;DHT22;20046;50.746;7.072;2023-02-17T14:17:53;24.80;86.20
33717;DHT22;20046;50.746;7.072;2023-02-17T14:20:26;24.50;87.00
33717;DHT22;20046;50.746;7.072;2023-02-17T14:23:12;24.20;87.60
33717;DHT22;20046;50.746;7.072;2023-02-17T14:25:43;24.20;87.40
33717;DHT22;20046;50.746;7.072;2023-02-17T14:28:20;23.90;88.00
33717;DHT22;20046;50.746;7.072;2023-02-17T14:30:47;23.80;87.90
33717;DHT22;20046;50.746;7.072;2023-02-17T14:35:59;22.60;90.10
33717;DHT22;20046;50.746;7.072;2023-02-17T14:38:34;22.10;90.60
33717;DHT22;20046;50.746;7.072;2023-02-17T14:41:02;21.40;91.20
33717;DHT22;20046;50.746;7.072;2023-02-17T14:43:28;20.80;91.80
33717;DHT22;20046;50.746;7.072;2023-02-17T14:45:54;20.40;92.70
33717;DHT22;20046;50.746;7.072;2023-02-17T14:48:19;20.10;93.40
33717;DHT22;20046;50.746;7.072;2023-02-17T14:50:45;20.10;93.80
33717;DHT22;20046;50.746;7.072;2023-02-17T14:53:13;20.30;93.90
33717;DHT22;20046;50.746;7.072;2023-02-17T14:56:06;20.40;93.80
33717;DHT22;20046;50.746;7.072;2023-02-17T14:58:30;20.20;93.90
33717;DHT22;20046;50.746;7.072;2023-02-17T15:00:56;19.90;93.90
33717;DHT22;20046;50.746;7.072;2023-02-17T15:03:22;19.90;94.20
33717;DHT22;20046;50.746;7.072;2023-02-17T15:05:48;20.20;94.20
33717;DHT22;20046;50.746;7.072;2023-02-17T15:08:18;20.30;94.20
33717;DHT22;20046;50.746;7.072;2023-02-17T15:10:45;20.10;94.30
33717;DHT22;20046;50.746;7.072;2023-02-17T15:13:14;20.10;94.50
33717;DHT22;20046;50.746;7.072;2023-02-17T15:15:41;19.80;94.60
33717;DHT22;20046;50.746;7.072;2023-02-17T15:18:13;19.40;95.00
33717;DHT22;20046;50.746;7.072;2023-02-17T15:20:41;19.00;95.60
33717;DHT22;20046;50.746;7.072;2023-02-17T15:23:16;18.70;96.20
33717;DHT22;20046;50.746;7.072;2023-02-17T15:25:42;18.40;96.60
33717;DHT22;20046;50.746;7.072;2023-02-17T15:28:13;18.10;97.20
33717;DHT22;20046;50.746;7.072;2023-02-17T15:30:39;17.80;98.00
33717;DHT22;20046;50.746;7.072;2023-02-17T15:33:10;17.60;98.60
33717;DHT22;20046;50.746;7.072;2023-02-17T15:35:37;17.30;99.30
33717;DHT22;20046;50.746;7.072;2023-02-17T15:38:03;17.20;99.90
33717;DHT22;20046;50.746;7.072;2023-02-17T15:40:29;17.00;99.90
33717;DHT22;20046;50.746;7.072;2023-02-17T15:42:58;16.80;99.90
33717;DHT22;20046;50.746;7.072;2023-02-17T15:45:27;16.70;99.90
33717;DHT22;20046;50.746;7.072;2023-02-17T15:48:02;16.60;99.90
33717;DHT22;20046;50.746;7.072;2023-02-17T15:50:28;16.50;99.90
33717;DHT22;20046;50.746;7.072;2023-02-17T15:52:54;16.40;99.90
33717;DHT22;20046;50.746;7.072;2023-02-17T15:55:20;16.30;99.90
33717;DHT22;20046;50.746;7.072;2023-02-17T15:57:50;16.20;99.90
33717;DHT22;20046;50.746;7.072;2023-02-17T16:02:48;16.10;99.90
33717;DHT22;20046;50.746;7.072;2023-02-17T16:05:16;16.00;99.90
33717;DHT22;20046;50.746;7.072;2023-02-17T16:07:42;15.90;99.90
33717;DHT22;20046;50.746;7.072;2023-02-17T16:10:09;15.90;99.90
33717;DHT22;20046;50.746;7.072;2023-02-17T16:12:35;15.80;99.90
33717;DHT22;20046;50.746;7.072;2023-02-17T16:15:00;15.70;99.90
33717;DHT22;20046;50.746;7.072;2023-02-17T16:17:26;15.60;99.90
33717;DHT22;20046;50.746;7.072;2023-02-17T16:19:52;15.60;99.90
33717;DHT22;20046;50.746;7.072;2023-02-17T16:22:18;15.50;99.90
33717;DHT22;20046;50.746;7.072;2023-02-17T16:24:43;15.50;99.90
33717;DHT22;20046;50.746;7.072;2023-02-17T16:27:12;15.40;99.90
33717;DHT22;20046;50.746;7.072;2023-02-17T16:29:39;15.30;99.90
33717;DHT22;20046;50.746;7.072;2023-02-17T16:32:05;15.20;99.90
33717;DHT22;20046;50.746;7.072;2023-02-17T16:34:31;15.20;99.90
33717;DHT22;20046;50.746;7.072;2023-02-17T16:37:01;15.10;99.90
33717;DHT22;20046;50.746;7.072;2023-02-17T16:39:27;15.10;99.90
33717;DHT22;20046;50.746;7.072;2023-02-17T16:41:53;15.00;99.90
33717;DHT22;20046;50.746;7.072;2023-02-17T16:44:21;14.90;99.90
33717;DHT22;20046;50.746;7.072;2023-02-17T16:46:51;14.90;99.90
33717;DHT22;20046;50.746;7.072;2023-02-17T16:51:59;14.70;99.90
33717;DHT22;20046;50.746;7.072;2023-02-17T16:54:25;14.60;99.90
33717;DHT22;20046;50.746;7.072;2023-02-17T16:56:51;14.50;99.90
33717;DHT22;20046;50.746;7.072;2023-02-17T16:59:20;14.50;99.90
33717;DHT22;20046;50.746;7.072;2023-02-17T17:01:47;14.40;99.90
33717;DHT22;20046;50.746;7.072;2023-02-17T17:04:13;14.30;99.90
33717;DHT22;20046;50.746;7.072;2023-02-17T17:06:43;14.20;99.90
33717;DHT22;20046;50.746;7.072;2023-02-17T17:09:14;14.00;99.90
33717;DHT22;20046;50.746;7.072;2023-02-17T17:11:41;13.90;99.90
33717;DHT22;20046;50.746;7.072;2023-02-17T17:14:07;13.70;99.90
33717;DHT22;20046;50.746;7.072;2023-02-17T17:16:33;13.60;99.90
33717;DHT22;20046;50.746;7.072;2023-02-17T17:19:21;13.50;99.90
33717;DHT22;20046;50.746;7.072;2023-02-17T17:21:47;13.40;99.90
33717;DHT22;20046;50.746;7.072;2023-02-17T17:24:13;13.30;99.90
33717;DHT22;20046;50.746;7.072;2023-02-17T17:26:48;13.20;99.90
33717;DHT22;20046;50.746;7.072;2023-02-17T17:29:17;13.10;99.90